Time;durP1;ratioP1;P1;durP2;ratioP2;P2;SDS_P1;SDS_P2;PMS_P1;PMS_P2;Temp;Humidity;BMP_temperature;BMP_pressure;BME280_temperature;BME280_humidity;BME280_pressure;Samples;Min_cycle;Max_cycle;Signal;HPM_P1;HPM_P2
2022/02/07 00:00:36;;;;;;;1.57;1.00;;;4.30;99.90;;;4.77;100.00;97202.53;4994370;28;20474;-75
2022/02/07 00:03:42;;;;;;;2.80;1.23;;;4.20;99.90;;;4.77;100.00;97206.88;4999735;28;20465;-75
2022/02/07 00:06:24;;;;;;;2.70;0.87;;;4.30;99.90;;;4.79;100.00;97199.78;4994867;28;20868;-74
2022/02/07 00:12:28;;;;;;;1.33;0.97;;;4.30;99.90;;;4.76;100.00;97210.44;4947556;28;20955;-75
2022/02/07 00:15:00;;;;;;;2.20;0.80;;;4.40;99.90;;;4.80;100.00;97228.06;4996695;28;20469;-74
2022/02/07 00:18:11;;;;;;;3.10;1.03;;;4.30;99.90;;;4.81;100.00;97213.34;4996202;28;20475;-75
2022/02/07 00:20:42;;;;;;;0.93;0.93;;;4.40;99.90;;;4.79;100.00;97215.31;4996698;28;20473;-75
2022/02/07 00:23:28;;;;;;;3.90;1.20;;;4.30;99.90;;;4.83;100.00;97237.28;4995321;28;20980;-75
2022/02/07 00:26:21;;;;;;;8.07;1.43;;;4.40;99.90;;;4.89;100.00;97263.31;4989421;28;20471;-75
2022/02/07 00:29:01;;;;;;;1.40;1.30;;;4.50;99.90;;;4.89;100.00;97262.50;4995237;28;20549;-75
2022/02/07 00:31:34;;;;;;;2.03;1.00;;;4.40;99.90;;;4.89;100.00;97275.47;4994324;28;20581;-75
2022/02/07 00:34:16;;;;;;;3.40;1.23;;;4.40;99.90;;;4.90;100.00;97259.72;4999252;28;20448;-75
2022/02/07 00:36:59;;;;;;;3.17;1.00;;;4.40;99.90;;;4.89;100.00;97263.31;4995613;28;20470;-75
2022/02/07 00:39:38;;;;;;;2.40;1.13;;;4.40;99.90;;;4.92;100.00;97295.84;4995535;28;20559;-75
2022/02/07 00:42:28;;;;;;;1.27;0.90;;;4.40;99.90;;;4.91;100.00;97317.53;4995014;28;20494;-74
2022/02/07 00:45:24;;;;;;;2.13;0.90;;;4.50;99.90;;;4.85;100.00;97323.38;4995386;28;20991;-75
2022/02/07 00:48:00;;;;;;;2.03;1.17;;;4.40;99.90;;;4.81;100.00;97311.75;4998290;28;20948;-75
2022/02/07 00:50:59;;;;;;;6.40;1.30;;;4.30;99.90;;;4.83;100.00;97320.16;4912595;28;20823;-75
2022/02/07 00:53:34;;;;;;;1.97;1.33;;;4.30;99.90;;;4.82;100.00;97355.63;4934305;28;20470;-75
2022/02/07 00:56:25;;;;;;;7.23;1.30;;;4.30;99.90;;;4.84;100.00;97352.84;4934014;28;20480;-75
2022/02/07 00:59:20;;;;;;;1.97;1.07;;;4.40;99.90;;;4.85;100.00;97347.50;4925911;28;20459;-75
2022/02/07 01:01:56;;;;;;;4.43;1.13;;;4.40;99.90;;;4.85;100.00;97362.25;4968294;28;20497;-74
2022/02/07 01:04:32;;;;;;;4.63;1.00;;;4.30;99.90;;;4.87;100.00;97362.88;4994012;28;20502;-75
2022/02/07 01:07:41;;;;;;;2.87;1.30;;;4.40;99.90;;;4.95;100.00;97368.03;4971288;28;20530;-75
2022/02/07 01:10:57;;;;;;;6.53;1.10;;;4.50;99.90;;;4.89;100.00;97379.88;4997458;28;20528;-75
2022/02/07 01:53:26;;;;;;;5.37;1.40;;;4.30;99.90;;;4.84;100.00;97547.09;4994175;28;20490;-74
2022/02/07 01:56:01;;;;;;;2.60;1.10;;;4.30;99.90;;;4.78;100.00;97552.94;4993506;28;20501;-75
2022/02/07 01:58:34;;;;;;;7.07;1.60;;;4.20;99.90;;;4.74;100.00;97565.41;4992550;28;20474;-75
2022/02/07 02:01:03;;;;;;;4.07;1.20;;;4.30;99.90;;;4.73;100.00;97575.91;4994835;28;20469;-75
2022/02/07 02:03:45;;;;;;;5.30;1.87;;;4.20;99.90;;;4.75;100.00;97573.97;4992284;28;20474;-75
2022/02/07 02:09:08;;;;;;;7.47;1.83;;;4.30;99.90;;;4.78;100.00;97573.66;4975901;28;20471;-75
2022/02/07 02:11:52;;;;;;;6.73;1.30;;;4.30;99.90;;;4.84;100.00;97580.75;4993079;28;20550;-75
2022/02/07 02:15:03;;;;;;;0.90;0.77;;;4.30;99.90;;;4.83;100.00;97587.72;4940166;28;20476;-74
2022/02/07 02:47:55;;;;;;;2.80;1.23;;;3.70;99.90;;;4.18;100.00;97778.31;4993750;28;21050;-75
2022/02/07 02:50:33;;;;;;;2.23;1.10;;;3.70;99.90;;;4.13;100.00;97780.53;4992708;28;20484;-75
2022/02/07 02:53:24;;;;;;;4.90;1.30;;;3.70;99.90;;;4.12;100.00;97791.03;4993860;28;20498;-75
2022/02/07 02:56:02;;;;;;;4.93;1.40;;;3.60;99.90;;;4.12;100.00;97807.38;4993480;28;20958;-75
2022/02/07 02:58:32;;;;;;;4.30;1.57;;;3.60;99.90;;;4.13;100.00;97814.16;4993366;28;21052;-75
2022/02/07 03:01:10;;;;;;;3.60;1.23;;;3.60;99.90;;;4.12;100.00;97828.09;4995114;28;20474;-75
2022/02/07 03:03:41;;;;;;;3.80;1.10;;;3.60;99.90;;;4.14;100.00;97818.38;4989940;28;20469;-75
2022/02/07 03:06:22;;;;;;;4.70;1.57;;;3.60;99.90;;;4.11;100.00;97829.03;4991536;28;20995;-75
2022/02/07 03:08:52;;;;;;;2.00;1.20;;;3.70;99.90;;;4.12;100.00;97841.03;4992221;28;20524;-75
2022/02/07 03:11:25;;;;;;;4.77;1.70;;;3.60;99.90;;;4.08;100.00;97837.09;4992575;28;20560;-75
2022/02/07 03:14:18;;;;;;;2.63;1.10;;;3.60;99.90;;;4.07;100.00;97856.16;4993686;28;20510;-75
2022/02/07 03:16:54;;;;;;;7.07;1.13;;;3.60;99.90;;;4.02;100.00;97864.41;4995309;28;20477;-75
2022/02/07 03:19:24;;;;;;;2.70;1.40;;;3.60;99.90;;;4.03;100.00;97867.78;4998490;28;20826;-75
2022/02/07 03:22:03;;;;;;;4.20;1.20;;;3.60;99.90;;;4.10;100.00;97889.50;4998779;28;20565;-75
2022/02/07 03:24:37;;;;;;;6.20;1.33;;;3.60;99.90;;;4.14;100.00;97883.06;4998551;28;20512;-75
2022/02/07 03:27:16;;;;;;;6.97;1.43;;;3.60;99.90;;;4.18;100.00;97902.50;4997172;28;20561;-75
2022/02/07 03:29:59;;;;;;;1.70;0.90;;;3.70;99.90;;;4.20;100.00;97907.53;4997601;28;20470;-75
2022/02/07 03:32:39;;;;;;;3.00;1.30;;;3.60;99.90;;;4.19;100.00;97931.78;4999287;28;20512;-75
2022/02/07 03:35:16;;;;;;;2.83;1.10;;;3.60;99.90;;;4.19;100.00;97931.78;4997418;28;20556;-75
2022/02/07 03:38:12;;;;;;;5.60;1.03;;;3.60;99.90;;;4.21;100.00;97941.00;4996672;28;20854;-75
2022/02/07 03:40:50;;;;;;;3.13;1.37;;;3.70;99.90;;;4.20;100.00;97936.00;4997132;28;20498;-75
2022/02/07 03:43:42;;;;;;;1.00;0.90;;;3.70;99.90;;;4.22;100.00;97957.34;4997152;28;20601;-75
2022/02/07 03:46:19;;;;;;;2.17;1.33;;;3.70;99.90;;;4.20;100.00;97960.06;4994658;28;20497;-75
2022/02/07 03:48:54;;;;;;;9.30;1.93;;;3.70;99.90;;;4.13;100.00;97953.88;4997723;28;20883;-75
2022/02/07 03:51:33;;;;;;;2.20;1.27;;;3.70;99.90;;;4.13;100.00;97966.81;4993347;28;21021;-75
2022/02/07 03:54:32;;;;;;;4.67;1.20;;;3.70;99.90;;;4.07;100.00;97980.34;4995011;28;20501;-75
2022/02/07 03:57:01;;;;;;;4.50;1.63;;;3.60;99.90;;;4.02;100.00;97982.56;4997633;28;20517;-75
2022/02/07 03:59:40;;;;;;;5.37;1.70;;;3.50;99.90;;;4.05;100.00;97997.81;4997772;28;20471;-75
2022/02/07 04:02:21;;;;;;;2.90;1.33;;;3.50;99.90;;;4.09;100.00;98008.66;4995966;28;20472;-75
2022/02/07 04:05:45;;;;;;;6.20;1.20;;;3.60;99.90;;;4.11;100.00;98010.13;4992496;28;20470;-75
2022/02/07 04:08:30;;;;;;;2.23;1.07;;;3.60;99.90;;;4.13;100.00;98026.31;4932036;28;20871;-76
2022/02/07 04:11:19;;;;;;;6.17;1.50;;;3.60;99.90;;;4.13;100.00;98030.69;4934701;28;20857;-75
2022/02/07 04:14:01;;;;;;;2.60;1.13;;;3.60;99.90;;;4.17;100.00;98038.00;4986962;28;20584;-75
2022/02/07 04:16:36;;;;;;;3.13;1.07;;;3.60;99.90;;;4.17;100.00;98043.19;4992702;28;20604;-75
2022/02/07 04:19:21;;;;;;;4.50;1.60;;;3.60;99.90;;;4.21;100.00;98049.69;4990896;28;20553;-75
2022/02/07 04:22:04;;;;;;;2.67;1.40;;;3.60;99.90;;;4.14;100.00;98059.00;4994966;28;20470;-75
2022/02/07 04:24:41;;;;;;;4.10;1.50;;;3.70;99.90;;;4.13;100.00;98075.47;4995614;28;20494;-75
2022/02/07 04:27:24;;;;;;;6.30;1.20;;;3.60;99.90;;;4.07;100.00;98082.06;4991610;28;20900;-75
2022/02/07 04:29:54;;;;;;;4.00;1.50;;;3.60;99.90;;;4.03;100.00;98083.31;4995205;28;20969;-75
2022/02/07 04:32:43;;;;;;;3.50;1.43;;;3.60;99.90;;;4.08;100.00;98101.00;4996272;28;20575;-75
2022/02/07 04:35:22;;;;;;;6.50;2.97;;;3.50;99.90;;;3.97;100.00;98088.25;4997489;28;21441;-77
2022/02/07 04:38:04;;;;;;;4.57;1.53;;;3.40;99.90;;;3.89;100.00;98095.91;4994976;28;20994;-75
2022/02/07 04:40:40;;;;;;;4.50;1.50;;;3.40;99.90;;;3.89;100.00;98114.81;4996547;28;20552;-75
2022/02/07 04:43:14;;;;;;;4.63;1.40;;;3.40;99.90;;;3.95;100.00;98132.38;4994722;28;20543;-76
2022/02/07 04:54:59;;;;;;;2.77;1.10;;;3.40;99.90;;;3.85;100.00;98167.00;4975432;28;20818;-75
2022/02/07 04:57:56;;;;;;;1.83;1.10;;;3.40;99.90;;;3.83;100.00;98179.22;4982161;28;20490;-75
2022/02/07 05:01:05;;;;;;;3.97;1.33;;;3.30;99.90;;;3.82;100.00;98188.75;4993032;28;20547;-75
2022/02/07 05:16:03;;;;;;;7.57;1.50;;;3.30;99.90;;;3.72;100.00;98218.19;4997374;28;20549;-75
2022/02/07 05:18:33;;;;;;;2.00;1.07;;;3.20;99.90;;;3.64;100.00;98226.66;4997086;28;20928;-74
2022/02/07 05:21:03;;;;;;;1.20;1.10;;;3.10;99.90;;;3.70;100.00;98231.28;4997746;28;20463;-74
2022/02/07 05:23:33;;;;;;;1.00;0.90;;;3.20;99.90;;;3.69;100.00;98228.81;4996720;28;20756;-74
2022/02/07 05:26:09;;;;;;;2.90;1.00;;;3.20;99.90;;;3.66;100.00;98235.09;4997908;28;20472;-75
2022/02/07 05:28:38;;;;;;;26.23;12.23;;;3.20;99.90;;;3.70;100.00;98239.03;4997007;28;20460;-75
2022/02/07 05:31:09;;;;;;;4.63;1.43;;;3.20;99.90;;;3.76;100.00;98255.75;4994255;28;20472;-74
2022/02/07 05:33:39;;;;;;;5.90;1.07;;;3.20;99.90;;;3.81;100.00;98258.75;4996616;28;20835;-74
2022/02/07 05:36:10;;;;;;;1.20;1.10;;;3.30;99.90;;;3.75;100.00;98257.50;4996318;28;20464;-74
2022/02/07 05:38:45;;;;;;;1.27;1.00;;;3.30;99.90;;;3.79;100.00;98268.41;4996170;28;20496;-75
2022/02/07 05:41:19;;;;;;;1.23;1.10;;;3.30;99.90;;;3.78;100.00;98272.78;4995014;28;20641;-74
2022/02/07 05:43:51;;;;;;;8.53;1.30;;;3.30;99.90;;;3.72;100.00;98285.41;4995392;28;20458;-74
2022/02/07 05:46:20;;;;;;;4.73;1.40;;;3.30;99.90;;;3.72;100.00;98290.59;4996426;28;20507;-74
2022/02/07 05:48:51;;;;;;;4.47;1.50;;;3.30;99.90;;;3.72;100.00;98295.75;4994485;28;20845;-74
2022/02/07 05:51:22;;;;;;;4.23;2.13;;;3.20;99.90;;;3.74;100.00;98301.63;4995354;28;20460;-74
2022/02/07 05:53:53;;;;;;;3.80;1.73;;;3.20;99.90;;;3.71;100.00;98304.50;4996784;28;20513;-74
2022/02/07 05:56:24;;;;;;;4.32;1.60;;;3.20;99.90;;;3.75;100.00;98316.97;4995470;28;20457;-75
2022/02/07 05:58:54;;;;;;;5.80;1.40;;;3.20;99.90;;;3.72;100.00;98331.97;5003458;28;20465;-75
2022/02/07 06:01:29;;;;;;;2.20;1.33;;;3.30;99.90;;;3.67;100.00;98334.97;5000042;28;20456;-75
2022/02/07 06:03:58;;;;;;;3.53;1.50;;;3.20;99.90;;;3.64;100.00;98347.34;4998116;28;20502;-75
2022/02/07 06:06:27;;;;;;;4.60;2.07;;;3.20;99.90;;;3.63;100.00;98348.31;4997526;28;20490;-75
2022/02/07 06:08:58;;;;;;;6.57;2.03;;;3.10;99.90;;;3.67;100.00;98353.06;5000145;28;20883;-75
2022/02/07 06:11:29;;;;;;;11.23;1.17;;;3.20;99.90;;;3.69;100.00;98360.69;4999178;28;20523;-75
2022/02/07 06:13:59;;;;;;;2.17;1.27;;;3.20;99.90;;;3.73;100.00;98362.03;4999327;28;21181;-75
2022/02/07 06:16:32;;;;;;;3.13;1.17;;;3.20;99.90;;;3.69;100.00;98373.59;5000342;28;20457;-75
2022/02/07 06:19:04;;;;;;;5.47;1.50;;;3.20;99.90;;;3.68;100.00;98377.16;4999982;28;20458;-75
2022/02/07 06:21:35;;;;;;;6.80;1.43;;;3.10;99.90;;;3.63;100.00;98384.50;4997165;28;20454;-75
2022/02/07 06:24:08;;;;;;;11.63;1.40;;;3.10;99.90;;;3.68;100.00;98385.72;4999828;28;20452;-75
2022/02/07 06:26:39;;;;;;;5.80;1.50;;;3.10;99.90;;;3.72;100.00;98394.84;4999638;28;20548;-75
2022/02/07 06:29:09;;;;;;;7.43;1.37;;;3.20;99.90;;;3.77;100.00;98407.38;4999106;28;20462;-76
2022/02/07 06:31:41;;;;;;;9.80;1.40;;;3.20;99.90;;;3.77;100.00;98407.38;4998842;28;20449;-75
2022/02/07 06:34:11;;;;;;;6.57;1.83;;;3.20;99.90;;;3.78;100.00;98415.00;4997316;28;21004;-75
2022/02/07 06:36:41;;;;;;;8.13;1.37;;;3.20;99.90;;;3.79;100.00;98420.97;5000110;28;20513;-75
2022/02/07 06:39:13;;;;;;;2.50;1.23;;;3.20;99.90;;;3.77;100.00;98428.06;5002758;28;20510;-75
2022/02/07 06:41:47;;;;;;;2.20;1.37;;;3.20;99.90;;;3.80;100.00;98430.38;5002056;28;20471;-75
2022/02/07 06:44:18;;;;;;;6.73;1.53;;;3.30;99.90;;;3.83;100.00;98449.03;5000565;28;20850;-75
2022/02/07 06:46:50;;;;;;;6.40;1.73;;;3.30;99.90;;;3.84;100.00;98445.50;5000262;28;20477;-75
2022/02/07 06:49:20;;;;;;;8.63;1.40;;;3.30;99.90;;;3.77;100.00;98452.16;5001019;28;20464;-75
2022/02/07 06:51:49;;;;;;;2.40;1.60;;;3.20;99.90;;;3.73;100.00;98455.13;5001028;28;20504;-75
2022/02/07 06:54:23;;;;;;;3.13;1.40;;;3.10;99.90;;;3.72;100.00;98463.84;5000824;28;20576;-75
2022/02/07 06:56:53;;;;;;;5.03;1.33;;;3.10;99.90;;;3.75;100.00;98476.53;4999704;28;20945;-75
2022/02/07 06:59:25;;;;;;;3.93;1.37;;;3.10;99.90;;;3.69;100.00;98480.44;5000968;28;20458;-75
2022/02/07 07:01:55;;;;;;;6.03;1.93;;;3.00;99.90;;;3.73;100.00;98487.00;5000075;28;20933;-78
2022/02/07 07:04:28;;;;;;;7.80;1.67;;;3.10;99.90;;;3.74;100.00;98505.91;5002902;28;20465;-75
2022/02/07 07:06:59;;;;;;;2.10;1.30;;;3.20;99.90;;;3.63;100.00;98508.59;5000577;28;20444;-75
2022/02/07 07:09:32;;;;;;;12.70;1.33;;;2.90;99.90;;;3.70;100.00;98515.69;5000252;28;20453;-75
2022/02/07 07:12:05;;;;;;;4.87;1.47;;;3.00;99.90;;;3.67;100.00;98525.50;4999301;28;20463;-75
2022/02/07 07:14:44;;;;;;;3.40;1.60;;;3.10;99.90;;;3.68;100.00;98532.31;5002661;28;20538;-75
2022/02/07 07:17:14;;;;;;;3.63;1.40;;;3.10;99.90;;;3.68;100.00;98547.81;5001358;28;20454;-75
2022/02/07 07:19:47;;;;;;;5.53;1.60;;;3.10;99.90;;;3.63;100.00;98549.97;4999754;28;20808;-75
2022/02/07 07:22:17;;;;;;;4.70;1.43;;;3.00;99.90;;;3.66;100.00;98554.88;5001223;28;20456;-75
2022/02/07 07:24:52;;;;;;;4.47;1.30;;;3.00;99.90;;;3.64;100.00;98561.97;4998489;28;20907;-75
2022/02/07 07:27:27;;;;;;;2.37;1.60;;;3.00;99.90;;;3.66;100.00;98578.16;5001263;28;20468;-75
2022/02/07 07:29:58;;;;;;;9.83;1.70;;;3.00;99.90;;;3.71;100.00;98578.59;5000244;28;20452;-75
2022/02/07 07:32:28;;;;;;;4.87;1.90;;;3.10;99.90;;;3.74;100.00;98575.72;5001635;28;20448;-75
2022/02/07 07:35:02;;;;;;;2.43;1.30;;;3.10;99.90;;;3.78;100.00;98582.28;5001297;28;20484;-75
2022/02/07 07:37:34;;;;;;;3.17;1.37;;;3.20;99.90;;;3.77;100.00;98585.81;5001591;28;20456;-75
2022/02/07 07:40:08;;;;;;;12.03;2.43;;;3.10;99.90;;;3.75;100.00;98585.13;5001697;28;20954;-75
2022/02/07 07:42:40;;;;;;;7.03;1.63;;;3.20;99.90;;;3.78;100.00;98577.94;4999846;28;20460;-75
2022/02/07 07:45:15;;;;;;;1.63;1.10;;;3.20;99.90;;;3.85;100.00;98585.97;5001352;28;20457;-76
2022/02/07 07:47:59;;;;;;;6.33;1.60;;;3.20;99.90;;;3.89;100.00;98593.34;5001624;28;20486;-75
2022/02/07 07:50:30;;;;;;;4.27;1.43;;;3.30;99.90;;;3.91;100.00;98601.78;5001464;28;20464;-75
2022/02/07 07:53:13;;;;;;;5.70;1.23;;;3.40;99.90;;;3.93;100.00;98596.47;4999331;28;20484;-75
2022/02/07 08:01:38;;;;;;;11.13;1.70;;;3.40;99.90;;;3.97;100.00;98593.50;5000694;28;20445;-75
2022/02/07 08:04:11;;;;;;;11.10;2.33;;;3.50;99.90;;;3.99;100.00;98598.56;5000370;28;20449;-75
2022/02/07 08:06:46;;;;;;;10.47;2.13;;;3.50;99.90;;;3.99;100.00;98606.31;5003968;28;20480;-75
2022/02/07 08:12:04;;;;;;;4.40;1.70;;;3.50;99.90;;;4.03;100.00;98618.00;4990969;28;20469;-75
2022/02/07 08:14:35;;;;;;;4.63;1.90;;;3.40;99.90;;;4.10;100.00;98626.88;5002830;28;21049;-75
2022/02/07 08:17:25;;;;;;;4.17;1.57;;;3.50;99.90;;;4.13;100.00;98626.63;4999557;28;20967;-75
2022/02/07 08:19:59;;;;;;;9.10;2.23;;;3.60;99.90;;;4.18;100.00;98634.81;5001623;28;20459;-75
2022/02/07 08:22:32;;;;;;;4.80;1.57;;;3.70;99.90;;;4.19;100.00;98640.81;5001206;28;20494;-75
2022/02/07 08:25:04;;;;;;;11.70;2.00;;;3.70;99.90;;;4.21;100.00;98644.09;5000361;28;20450;-75
2022/02/07 08:27:35;;;;;;;3.27;1.50;;;3.70;99.90;;;4.21;100.00;98650.06;5001806;28;20467;-75
2022/02/07 08:30:07;;;;;;;3.73;1.40;;;3.60;99.90;;;4.22;100.00;98656.06;5002373;28;20443;-75
2022/02/07 08:32:36;;;;;;;10.10;2.00;;;3.70;99.90;;;4.24;100.00;98670.50;5000974;28;20459;-75
2022/02/07 08:35:11;;;;;;;4.60;1.73;;;3.70;99.90;;;4.29;100.00;98694.25;5003068;28;20995;-75
2022/02/07 08:37:41;;;;;;;8.23;1.80;;;3.70;99.90;;;4.33;100.00;98690.44;5003197;28;20738;-75
2022/02/07 08:40:13;;;;;;;4.33;1.37;;;3.80;99.90;;;4.38;100.00;98695.22;5003805;28;20452;-75
2022/02/07 08:42:46;;;;;;;11.93;1.60;;;3.80;99.90;;;4.33;100.00;98690.44;5002928;28;20462;-75
2022/02/07 08:45:17;;;;;;;9.50;2.03;;;3.80;99.90;;;4.36;100.00;98687.59;5004752;28;20470;-75
2022/02/07 08:47:47;;;;;;;6.57;2.07;;;3.90;99.90;;;4.30;100.00;98701.06;5003063;28;20494;-76
2022/02/07 08:50:15;;;;;;;4.30;1.37;;;3.80;99.90;;;4.27;100.00;98706.47;5003859;28;20484;-75
2022/02/07 08:52:50;;;;;;;9.87;1.67;;;3.80;99.90;;;4.31;100.00;98707.88;5004318;28;20455;-75
2022/02/07 08:55:30;;;;;;;5.83;1.70;;;3.80;99.90;;;4.33;100.00;98710.34;5005270;28;20499;-75
2022/02/07 08:58:09;;;;;;;6.53;1.67;;;3.80;99.90;;;4.24;100.00;98711.09;5004146;28;20462;-75
2022/02/07 09:00:48;;;;;;;7.33;1.50;;;3.80;99.90;;;4.25;100.00;98723.09;5002909;28;20463;-75
2022/02/07 09:03:28;;;;;;;3.67;1.47;;;3.70;99.90;;;4.22;100.00;98731.13;5003260;28;21058;-75
2022/02/07 09:06:13;;;;;;;6.57;1.87;;;3.70;99.90;;;4.19;100.00;98755.50;5003105;28;20458;-75
2022/02/07 09:09:08;;;;;;;7.27;2.30;;;3.70;99.90;;;4.25;100.00;98760.16;5003084;28;20451;-75
2022/02/07 09:11:38;;;;;;;4.13;1.00;;;3.80;99.90;;;4.27;100.00;98755.66;5001465;28;20516;-75
2022/02/07 09:14:12;;;;;;;6.40;1.70;;;3.70;99.90;;;4.31;100.00;98764.00;5000388;28;20829;-75
2022/02/07 09:16:42;;;;;;;10.33;1.83;;;3.80;99.90;;;4.34;100.00;98768.94;5005476;28;20454;-75
2022/02/07 09:19:14;;;;;;;8.63;1.70;;;3.80;99.90;;;4.41;100.00;98773.44;5002442;28;20478;-75
2022/02/07 09:21:43;;;;;;;4.97;1.60;;;3.90;99.90;;;4.42;100.00;98788.03;5002286;28;20459;-75
2022/02/07 09:24:14;;;;;;;9.67;1.57;;;3.80;99.90;;;4.46;100.00;98783.41;5003747;28;20495;-75
2022/02/07 09:26:44;;;;;;;5.13;1.40;;;3.90;99.90;;;4.52;100.00;98783.72;5005239;28;20493;-75
2022/02/07 09:29:15;;;;;;;4.87;1.83;;;4.00;99.90;;;4.55;100.00;98787.78;5004002;28;20535;-75
2022/02/07 09:31:46;;;;;;;5.80;1.60;;;4.00;99.90;;;4.57;100.00;98793.69;5004414;28;20451;-75
2022/02/07 09:34:16;;;;;;;7.53;1.77;;;4.00;99.90;;;4.53;100.00;98800.91;5001705;28;20495;-75
2022/02/07 09:36:52;;;;;;;9.20;1.63;;;4.00;99.90;;;4.56;100.00;98795.44;5004924;28;20454;-75
2022/02/07 09:39:30;;;;;;;5.97;1.90;;;4.10;99.90;;;4.58;100.00;98796.13;5003280;28;20497;-75
2022/02/07 09:42:03;;;;;;;2.70;1.40;;;4.10;99.90;;;4.57;100.00;98797.09;5002093;28;20512;-75
2022/02/07 09:44:47;;;;;;;5.50;1.80;;;4.10;99.90;;;4.55;100.00;98798.16;5003363;28;20462;-75
2022/02/07 09:47:18;;;;;;;5.63;1.63;;;4.00;99.90;;;4.62;100.00;98814.81;5002301;28;21071;-75
2022/02/07 09:49:50;;;;;;;3.70;1.63;;;4.10;99.90;;;4.65;100.00;98821.53;5000251;28;20463;-75
2022/02/07 09:52:22;;;;;;;6.27;2.00;;;4.20;99.90;;;4.64;100.00;98825.88;4998249;28;20452;-75
2022/02/07 09:54:52;;;;;;;4.80;1.40;;;4.10;99.90;;;4.65;100.00;98824.13;5000096;28;21008;-75
2022/02/07 09:57:23;;;;;;;9.17;1.40;;;4.10;99.90;;;4.69;100.00;98831.47;4999210;28;20466;-75
2022/02/07 09:59:57;;;;;;;5.53;1.60;;;4.20;99.90;;;4.75;100.00;98819.78;4999295;28;20505;-75
2022/02/07 10:02:33;;;;;;;4.70;1.60;;;4.20;99.90;;;4.80;100.00;98830.56;4998323;28;20463;-75
2022/02/07 10:05:08;;;;;;;8.63;2.10;;;4.20;99.90;;;4.83;100.00;98825.09;5000025;28;21010;-75
2022/02/07 10:07:49;;;;;;;9.77;2.23;;;4.30;99.90;;;4.84;100.00;98830.19;5000536;28;20534;-75
2022/02/07 10:10:28;;;;;;;8.37;2.73;;;4.40;99.90;;;4.84;100.00;98835.34;5000385;28;20467;-76
2022/02/07 10:13:14;;;;;;;2.10;1.40;;;4.30;99.90;;;4.83;100.00;98848.44;4999794;28;20459;-75
2022/02/07 10:16:01;;;;;;;5.30;1.50;;;4.30;99.90;;;4.84;100.00;98855.25;5000213;28;20576;-76
2022/02/07 10:18:40;;;;;;;4.93;1.73;;;4.30;99.90;;;4.88;100.00;98862.66;4999771;28;20518;-75
2022/02/07 10:36:07;;;;;;;4.67;1.67;;;4.40;99.90;;;4.94;100.00;98919.13;4998443;28;20494;-76
2022/02/07 10:38:47;;;;;;;4.93;1.47;;;4.50;99.90;;;5.01;100.00;98919.41;5000718;28;20455;-75
2022/02/07 10:41:59;;;;;;;8.13;1.83;;;4.50;99.90;;;5.05;100.00;98937.19;5001311;28;20466;-76
2022/02/07 10:44:43;;;;;;;4.20;1.50;;;4.60;99.90;;;5.09;100.00;98950.69;5001747;28;20470;-75
2022/02/07 10:47:21;;;;;;;16.40;2.10;;;4.60;99.90;;;5.14;100.00;98951.13;5002880;28;20493;-75
2022/02/07 10:50:06;;;;;;;6.13;1.90;;;4.60;99.90;;;5.17;100.00;98961.25;5000630;28;20516;-76
2022/02/07 10:52:53;;;;;;;6.47;1.70;;;4.60;99.90;;;5.22;100.00;98963.44;5002541;28;20546;-75
2022/02/07 10:55:28;;;;;;;6.10;1.80;;;4.70;99.90;;;5.19;100.00;98990.44;5000078;28;20495;-75
2022/02/07 10:58:01;;;;;;;5.27;1.90;;;4.70;99.90;;;5.21;100.00;98980.75;5000324;28;20455;-75
2022/02/07 11:00:39;;;;;;;8.50;2.17;;;4.80;99.90;;;5.27;100.00;98977.66;5002507;28;20447;-75
2022/02/07 11:03:15;;;;;;;8.10;2.17;;;4.80;99.90;;;5.28;100.00;98989.66;5002760;28;20534;-75
2022/02/07 11:05:49;;;;;;;9.73;1.77;;;4.70;99.90;;;5.34;100.00;98985.75;5001290;28;20480;-75
2022/02/07 11:08:26;;;;;;;7.30;1.77;;;4.80;99.90;;;5.30;100.00;98981.75;5000323;28;20432;-75
2022/02/07 11:17:01;;;;;;;10.33;1.87;;;5.00;99.90;;;5.48;100.00;99001.75;4991958;28;20917;-75
2022/02/07 11:19:45;;;;;;;2.67;1.67;;;5.00;99.90;;;5.41;100.00;99007.59;5001654;28;20446;-75
2022/02/07 11:22:51;;;;;;;7.53;2.00;;;5.00;99.90;;;5.41;100.00;99021.41;5000773;28;21210;-75
2022/02/07 11:25:37;;;;;;;3.30;1.80;;;4.90;99.90;;;5.48;100.00;99021.69;4999995;28;20626;-76
2022/02/07 11:28:19;;;;;;;2.30;1.30;;;5.00;99.90;;;5.43;100.00;99029.03;5000898;28;20538;-75
2022/02/07 11:31:00;;;;;;;10.87;1.87;;;5.00;99.90;;;5.42;100.00;99038.56;5002268;28;20459;-75
2022/02/07 11:34:11;;;;;;;4.63;2.07;;;4.90;99.90;;;5.50;100.00;99046.53;5000635;28;20821;-75
2022/02/07 11:36:42;;;;;;;4.43;1.20;;;5.00;99.90;;;5.52;100.00;99044.63;5001175;28;20501;-75
2022/02/07 11:39:18;;;;;;;5.80;2.27;;;5.00;99.90;;;5.53;100.00;99041.09;5004119;28;20570;-76
2022/02/07 11:42:12;;;;;;;11.67;2.00;;;5.00;99.90;;;5.57;100.00;99042.47;5003139;28;20448;-75
2022/02/07 11:45:25;;;;;;;3.30;1.90;;;5.10;99.90;;;5.54;100.00;99054.88;5004083;28;20448;-75
2022/02/07 11:48:10;;;;;;;10.57;1.90;;;5.10;99.90;;;5.57;100.00;99052.03;5003604;28;20545;-76
2022/02/07 11:50:46;;;;;;;5.27;1.57;;;5.10;99.90;;;5.62;100.00;99075.00;5003537;28;20817;-76
2022/02/07 11:53:26;;;;;;;4.07;1.53;;;5.10;99.90;;;5.59;100.00;99082.06;5003797;28;20823;-75
2022/02/07 11:56:15;;;;;;;8.17;2.50;;;5.10;99.90;;;5.50;100.00;99062.09;5001947;28;20495;-75
2022/02/07 11:59:09;;;;;;;3.60;1.73;;;4.90;99.90;;;5.59;100.00;99063.06;5002867;28;20448;-75
2022/02/07 12:02:01;;;;;;;3.67;1.47;;;5.10;99.90;;;5.58;100.00;99070.06;5003653;28;20455;-75
2022/02/07 12:04:38;;;;;;;6.80;1.90;;;5.10;99.90;;;5.57;100.00;99071.00;5001509;28;20819;-76
2022/02/07 12:07:37;;;;;;;4.63;1.63;;;5.00;99.90;;;5.65;100.00;99072.97;5002368;28;20958;-75
2022/02/07 12:10:36;;;;;;;3.23;1.37;;;5.10;99.90;;;5.68;100.00;99067.50;4995096;28;20539;-75
2022/02/07 12:13:31;;;;;;;5.27;1.30;;;5.20;99.90;;;5.65;100.00;99065.19;5001513;28;20507;-75
2022/02/07 12:16:14;;;;;;;5.90;1.63;;;5.20;99.90;;;5.62;100.00;99069.81;5002767;28;20482;-75
2022/02/07 12:18:47;;;;;;;9.43;1.50;;;5.10;99.90;;;5.64;100.00;99075.66;5004678;28;20944;-75
2022/02/07 12:21:24;;;;;;;21.63;2.33;;;5.10;99.90;;;5.70;100.00;99073.38;5002543;28;20963;-76
2022/02/07 12:23:58;;;;;;;6.13;2.03;;;5.20;99.90;;;5.66;100.00;99092.75;5004077;28;20459;-76
2022/02/07 12:26:29;;;;;;;7.73;1.60;;;5.10;99.90;;;5.69;100.00;99082.13;5002485;28;20489;-76
2022/02/07 12:29:02;;;;;;;6.30;1.87;;;5.10;99.90;;;5.75;100.00;99086.78;5000443;28;20436;-76
2022/02/07 12:31:31;;;;;;;9.23;2.03;;;5.10;99.90;;;5.73;100.00;99082.66;4997958;28;20463;-76
2022/02/07 12:34:03;;;;;;;7.60;1.93;;;5.20;99.90;;;5.78;100.00;99078.75;4997706;28;20816;-76
2022/02/07 12:36:35;;;;;;;5.50;1.60;;;5.40;99.90;;;5.72;100.00;99088.81;5000175;28;20565;-75
2022/02/07 12:39:10;;;;;;;6.20;1.80;;;5.10;99.90;;;5.75;100.00;99091.16;4998853;28;20446;-75
2022/02/07 12:41:41;;;;;;;8.53;2.30;;;5.20;99.90;;;5.79;100.00;99085.56;5000549;28;20431;-75
2022/02/07 12:44:22;;;;;;;10.97;2.20;;;5.20;99.90;;;5.90;100.00;99089.88;5003248;28;21009;-75
2022/02/07 12:46:54;;;;;;;5.17;1.73;;;5.30;99.90;;;5.93;100.00;99089.63;5003093;28;20478;-75
2022/02/07 12:49:25;;;;;;;5.60;1.40;;;5.40;99.90;;;5.98;100.00;99096.03;5002660;28;20487;-75
2022/02/07 12:51:57;;;;;;;5.63;2.10;;;5.40;99.90;;;5.98;100.00;99087.44;5004528;28;20853;-75
2022/02/07 12:54:27;;;;;;;5.13;1.67;;;5.50;99.90;;;5.97;100.00;99089.19;5003969;28;20452;-75
2022/02/07 12:57:02;;;;;;;4.10;1.67;;;5.50;99.90;;;6.02;100.00;99084.44;5004838;28;20542;-75
2022/02/07 12:59:51;;;;;;;8.57;2.17;;;5.40;99.90;;;6.12;100.00;99094.03;5002364;28;20454;-75
2022/02/07 13:02:29;;;;;;;7.50;1.97;;;5.50;99.90;;;6.06;100.00;99095.38;5002181;28;20509;-75
2022/02/07 13:05:02;;;;;;;3.27;1.33;;;5.40;99.90;;;6.00;100.00;99095.94;5003893;28;20447;-75
2022/02/07 13:07:41;;;;;;;5.47;1.70;;;5.30;99.90;;;6.07;100.00;99099.63;5002804;28;20444;-75
2022/02/07 13:10:13;;;;;;;15.97;2.30;;;5.50;99.90;;;6.16;100.00;99104.03;5002251;28;20459;-75
2022/02/07 13:12:55;;;;;;;3.70;1.57;;;5.60;99.90;;;6.18;100.00;99104.69;5003876;28;20464;-75
2022/02/07 13:15:35;;;;;;;6.53;1.60;;;5.60;99.90;;;6.25;100.00;99099.81;5001380;28;20960;-75
2022/02/07 13:18:13;;;;;;;4.50;2.37;;;5.80;99.90;;;6.31;100.00;99102.69;5003005;28;20475;-75